createdAt,value
2018-07-16T00:02:30.120Z,8.63
2018-07-16T00:07:59.333Z,9.45
2018-07-16T00:13:29.612Z,9.75
2018-07-16T00:18:59.839Z,8.15
2018-07-16T00:24:29.033Z,8.35
2018-07-16T00:30:02.979Z,8.58
2018-07-16T00:35:32.251Z,10.30
2018-07-16T00:41:01.483Z,9.65
2018-07-16T00:46:30.704Z,8.05
2018-07-16T00:51:59.896Z,10.28
2018-07-16T00:57:30.160Z,9.00
2018-07-16T01:02:59.353Z,8.63
2018-07-16T01:08:28.581Z,8.28
2018-07-16T01:13:58.858Z,9.48
2018-07-16T01:19:28.856Z,8.45
2018-07-16T01:25:00.016Z,9.58
2018-07-16T01:30:29.243Z,8.93
2018-07-16T01:35:58.441Z,9.78
2018-07-16T01:41:27.642Z,9.85
2018-07-16T01:47:03.495Z,9.63
2018-07-16T01:52:32.432Z,14.77
2018-07-16T01:58:01.408Z,14.00
2018-07-16T02:03:35.241Z,9.15
2018-07-16T02:09:04.863Z,8.58
2018-07-16T02:14:37.344Z,8.55
2018-07-16T02:20:08.392Z,8.00
2018-07-16T02:25:37.767Z,8.20
2018-07-16T02:31:07.018Z,11.45
2018-07-16T02:36:36.192Z,7.58
2018-07-16T02:42:06.156Z,7.33
2018-07-16T02:47:35.338Z,9.03
2018-07-16T02:53:14.409Z,10.18
2018-07-16T02:58:43.666Z,7.90
2018-07-16T03:04:15.369Z,8.90
2018-07-16T03:09:44.629Z,6.90
2018-07-16T03:15:14.883Z,8.70
2018-07-16T03:20:44.143Z,15.83
2018-07-16T03:26:13.355Z,6.35
2018-07-16T03:31:42.666Z,6.10
2018-07-16T03:37:11.836Z,5.15
2018-07-16T03:42:41.124Z,7.80
2018-07-16T03:48:10.419Z,9.68
2018-07-16T03:53:40.677Z,7.40
2018-07-16T03:59:09.961Z,5.15
2018-07-16T04:04:39.203Z,5.17
2018-07-16T04:10:08.688Z,4.58
2018-07-16T04:15:38.936Z,4.70
2018-07-16T04:21:08.146Z,4.90
2018-07-16T04:26:37.444Z,7.25
2018-07-16T04:32:07.789Z,3.77
2018-07-16T04:37:37.017Z,5.75
2018-07-16T04:43:07.375Z,3.55
2018-07-16T04:48:36.646Z,4.30
2018-07-16T04:54:11.018Z,3.40
2018-07-16T04:59:40.184Z,4.45
2018-07-16T05:05:13.144Z,3.92
2018-07-16T05:10:42.365Z,4.00
2018-07-16T05:16:11.578Z,5.62
2018-07-16T05:21:41.109Z,5.53
2018-07-16T05:27:10.369Z,7.60
2018-07-16T05:32:39.842Z,6.07
2018-07-16T05:38:08.857Z,8.25
2018-07-16T05:43:38.085Z,6.92
2018-07-16T05:49:07.485Z,6.72
2018-07-16T05:54:36.713Z,7.42
2018-07-16T06:00:06.035Z,6.45
2018-07-16T06:05:35.276Z,10.82
2018-07-16T06:11:04.521Z,7.33
2018-07-16T06:16:33.821Z,9.75
2018-07-16T06:22:03.112Z,9.68
2018-07-16T06:27:32.348Z,6.55
2018-07-16T06:33:01.607Z,10.55
2018-07-16T06:38:30.829Z,11.20
2018-07-16T06:44:13.097Z,11.53
2018-07-16T06:49:42.299Z,13.80
2018-07-16T06:55:11.574Z,10.08
2018-07-16T07:00:40.900Z,11.18
2018-07-16T07:06:10.078Z,6.95
2018-07-16T07:11:39.440Z,9.83
2018-07-16T07:17:08.687Z,9.73
2018-07-16T07:22:37.959Z,9.10
2018-07-16T07:28:07.188Z,7.72
2018-07-16T07:33:36.408Z,7.35
2018-07-16T07:39:06.975Z,6.33
2018-07-16T07:44:36.319Z,6.33
2018-07-16T07:50:05.567Z,6.55
2018-07-16T07:55:34.644Z,6.95
2018-07-16T08:01:03.883Z,5.40
2018-07-16T08:06:33.102Z,5.50
2018-07-16T08:12:02.455Z,6.87
2018-07-16T08:17:31.715Z,7.17
2018-07-16T08:23:00.947Z,7.85
2018-07-16T08:28:30.291Z,5.62
2018-07-16T08:33:59.540Z,6.35
2018-07-16T08:39:28.570Z,6.87
2018-07-16T08:44:57.777Z,4.50
2018-07-16T08:50:26.989Z,5.83
2018-07-16T08:55:56.260Z,4.95
2018-07-16T09:01:25.471Z,7.00
2018-07-16T09:06:54.405Z,4.08
2018-07-16T09:12:23.666Z,5.60
2018-07-16T09:17:52.902Z,5.60
2018-07-16T09:23:22.269Z,4.53
2018-07-16T09:28:51.517Z,4.58
2018-07-16T09:34:20.872Z,7.08
2018-07-16T09:39:50.180Z,2.72
2018-07-16T09:45:19.479Z,3.90
2018-07-16T09:50:48.823Z,3.15
2018-07-16T09:56:18.100Z,4.03
2018-07-16T10:01:52.509Z,2.90
2018-07-16T10:07:21.886Z,3.30
2018-07-16T10:12:51.120Z,3.52
2018-07-16T10:18:20.416Z,6.47
2018-07-16T10:23:49.762Z,4.62
2018-07-16T10:29:19.022Z,3.97
2018-07-16T10:34:48.285Z,3.80
2018-07-16T10:40:17.605Z,5.03
2018-07-16T10:45:46.604Z,9.75
2018-07-16T10:51:15.864Z,4.77
2018-07-16T10:56:45.082Z,3.17
2018-07-16T11:02:14.306Z,3.37
2018-07-16T11:07:43.538Z,6.78
2018-07-16T11:13:13.857Z,5.33
2018-07-16T11:18:43.134Z,4.50
2018-07-16T11:24:12.325Z,4.90
2018-07-16T11:29:41.571Z,5.05
2018-07-16T11:35:10.799Z,5.13
2018-07-16T11:40:40.017Z,4.72
2018-07-16T11:46:09.287Z,3.13
2018-07-16T11:51:38.484Z,3.10
2018-07-16T11:57:08.119Z,3.30
2018-07-16T12:02:37.320Z,3.90
2018-07-16T12:08:06.607Z,3.07
2018-07-16T12:13:35.796Z,8.68
2018-07-16T12:19:05.060Z,2.40
2018-07-16T12:24:34.354Z,2.43
2018-07-16T12:30:03.690Z,2.53
2018-07-16T12:35:32.913Z,4.37
2018-07-16T12:41:02.137Z,2.43
2018-07-16T12:46:31.325Z,3.33
2018-07-16T12:52:00.554Z,4.77
2018-07-16T12:57:29.781Z,2.65
2018-07-16T13:02:59.002Z,6.20
2018-07-16T13:08:28.167Z,4.67
2018-07-16T13:13:57.952Z,4.53
2018-07-16T13:19:27.295Z,5.65
2018-07-16T13:24:56.508Z,7.47
2018-07-16T13:30:25.781Z,2.27
2018-07-16T13:35:54.978Z,2.50
2018-07-16T13:41:23.970Z,2.77
2018-07-16T13:46:53.347Z,5.10
2018-07-16T13:52:22.529Z,2.95
2018-07-16T13:57:52.154Z,8.70
2018-07-16T14:03:21.915Z,2.50
2018-07-16T14:08:51.295Z,2.95
2018-07-16T14:14:20.698Z,5.77
2018-07-16T14:19:50.010Z,2.30
2018-07-16T14:25:19.407Z,4.45
2018-07-16T14:30:48.772Z,2.90
2018-07-16T14:36:18.277Z,3.03
2018-07-16T14:41:47.608Z,4.90
2018-07-16T14:47:16.994Z,2.83
2018-07-16T14:52:46.372Z,3.13
2018-07-16T14:58:15.645Z,2.57
2018-07-16T15:03:44.884Z,7.10
2018-07-16T15:09:14.117Z,3.17
2018-07-16T15:14:43.407Z,5.70
2018-07-16T15:20:12.637Z,3.00
2018-07-16T15:25:42.889Z,2.30
2018-07-16T15:31:12.121Z,2.62
2018-07-16T15:36:41.361Z,1.43
2018-07-16T15:42:10.651Z,2.17
2018-07-16T15:47:39.873Z,3.00
2018-07-16T15:53:09.166Z,3.65
2018-07-16T15:58:38.420Z,2.95
2018-07-16T16:04:07.685Z,4.43
2018-07-16T16:09:38.985Z,3.50
2018-07-16T16:15:08.196Z,3.75
2018-07-16T16:20:37.411Z,3.20
2018-07-16T16:26:06.945Z,3.83
2018-07-16T16:31:36.748Z,4.00
2018-07-16T16:37:06.131Z,3.25
2018-07-16T16:42:35.417Z,2.50
2018-07-16T16:48:04.759Z,7.22
2018-07-16T16:53:34.016Z,4.20
2018-07-16T16:59:03.311Z,3.15
2018-07-16T17:04:32.583Z,4.65
2018-07-16T17:10:02.839Z,4.20
2018-07-16T17:15:32.212Z,3.73
2018-07-16T17:21:01.497Z,3.12
2018-07-16T17:26:32.864Z,4.13
2018-07-16T17:32:03.551Z,4.10
2018-07-16T17:37:32.966Z,4.35
2018-07-16T17:43:06.708Z,4.37
2018-07-16T17:48:36.015Z,3.52
2018-07-16T17:54:05.292Z,4.17
2018-07-16T17:59:35.916Z,3.80
2018-07-16T18:05:05.401Z,3.72
2018-07-16T18:10:39.077Z,5.87
2018-07-16T18:16:08.625Z,3.62
2018-07-16T18:21:37.917Z,3.58
2018-07-16T18:27:07.254Z,4.62
2018-07-16T18:32:36.464Z,7.42
2018-07-16T18:38:05.725Z,5.03
2018-07-16T18:43:34.987Z,6.08
2018-07-16T18:49:04.496Z,6.55
2018-07-16T18:54:33.887Z,5.73
2018-07-16T19:00:03.193Z,2.55
2018-07-16T19:05:32.441Z,3.72
2018-07-16T19:11:01.759Z,5.00
2018-07-16T19:16:33.718Z,3.50
2018-07-16T19:22:02.953Z,3.25
2018-07-16T19:27:32.213Z,3.30
2018-07-16T19:33:05.955Z,5.20
2018-07-16T19:38:37.617Z,3.58
2018-07-16T19:44:06.791Z,3.30
2018-07-16T19:49:36.115Z,8.73
2018-07-16T19:55:05.624Z,10.65
2018-07-16T20:00:35.070Z,7.12
2018-07-16T20:06:04.451Z,6.95
2018-07-16T20:11:33.903Z,10.20
2018-07-16T20:17:04.268Z,6.92
2018-07-16T20:22:33.588Z,7.57
2018-07-16T20:28:02.956Z,5.90
2018-07-16T20:33:32.319Z,9.28
2018-07-16T20:39:01.683Z,8.53
2018-07-16T20:44:32.035Z,6.12
2018-07-16T20:50:01.413Z,6.67
2018-07-16T20:55:31.258Z,6.17
2018-07-16T21:01:03.620Z,8.80
2018-07-16T21:06:33.051Z,5.53
2018-07-16T21:12:02.371Z,6.70
2018-07-16T21:17:31.838Z,6.40
2018-07-16T21:23:01.176Z,7.03
2018-07-16T21:28:30.385Z,7.85
2018-07-16T21:34:00.827Z,10.98
2018-07-16T21:39:30.194Z,7.93
2018-07-16T21:44:59.520Z,6.70
2018-07-16T21:50:28.719Z,8.00
2018-07-16T21:55:57.971Z,6.60
2018-07-16T22:01:27.220Z,7.27
2018-07-16T22:06:56.501Z,6.95
2018-07-16T22:12:25.692Z,9.58
2018-07-16T22:18:07.868Z,6.55
2018-07-16T22:23:37.285Z,13.05
2018-07-16T22:29:06.675Z,6.53
2018-07-16T22:34:35.945Z,10.00
2018-07-16T22:40:05.773Z,7.70
2018-07-16T22:45:35.072Z,7.12
2018-07-16T22:51:05.550Z,9.23
2018-07-16T22:56:34.836Z,7.08
2018-07-16T23:02:15.097Z,10.98
2018-07-16T23:07:44.361Z,6.45
2018-07-16T23:13:13.604Z,7.75
2018-07-16T23:18:42.838Z,7.20
2018-07-16T23:24:13.011Z,6.45
2018-07-16T23:29:42.503Z,6.33
2018-07-16T23:35:11.773Z,6.10
2018-07-16T23:40:41.074Z,7.05
2018-07-16T23:46:10.423Z,10.30
2018-07-16T23:51:39.745Z,5.90
2018-07-16T23:57:09.039Z,9.08
